LiveATC.Net - Listen to live air traffic control over the Internet!


ICAO: SASA  IATA: SLA   Airport: Martin Miguel de Guemes International Airport
City: Salta
Country: Argentina   Continent: South America
SASA METAR Weather: SASA 250300Z 00000KT CAVOK 11/05 Q1020
SASA Flight Activity (FlightAware)

SASA Twr/App
Feed Status: UP   Listeners: 1
Listen in your browser - HTML5 player (in browser, HTML5)
Click here to listen with your own player (launches your MP3 player)
SASA Twr/App Audio Archives
FacilityFrequency
Cordoba Approach (North)125.100
Salta Approach124.600
Salta Tower126.000
Salta Tower/Ground128.850

NOTICE

Unauthorized use prohibited. See LiveATC.net Terms of Service


Airport/ARTCC Code
Frequency Search
(e.g., 124.400, 128.75)
Site-wide search
 


Browse LiveATC Feeds
Top 50 LiveATC Feeds
LiveATC Feed Map
Bad Weather Areas

LiveATC FAQ
Offer LiveATC feed
Contact LiveATC.net
Press Inquiries

LiveATC on iPhone
LiveATC on Android

Windows Phone
Windows 8/10

LiveATC Mobile
(Mobile browser)

ATC Audio Archives
Interesting Recordings

LiveATC Forums


Home Page
About LiveATC.net
Make a Donation
Terms of Use
Privacy Policy

Canadian Air Freqs

AIRMETs/SIGMETs

FAA Airport Status
Nat'l Airspace Status
Arrival Demand Charts


Server Software By:
Icecast.org
Liquidsoap